Eynsham, United Kingdom
Current Conditions -  °F | °C
As of 12:50 PM on Sunday 21 Dec 2014 (Local Time) from EGTK Reporting Station
Overcast Overcast  
Wind Chill: 40°   Ceiling: 400
Heat Index: 46°   Visibility: 3mi
Dew Point: 46°   Wind: 16mph
Humidity: 100%   Direction: 230°SW
Pressure: 30.27"   Gusts: NA
Location:  51.78°N, 1.37°W
Report Text: EGTK 211250Z 23014KT 5000 BKN004 OVC006 08/08 Q1025
Loading
Personal Weather Stations






























Interactive Weather Map New forecast layout! Learn more

10-Day Weather Forecast

Advertisements
Track Severe Weather on mobile